AAL136 KLAX-EGLL
Flight info
| Callsign | AAL136 |
|---|---|
| Flight time | N/A |
| Altitude | 33000 |
| Route | DOTSS2 CLEEE DCT EED J236 TBC DCT JNC DCT EKR DCT RAP DCT DPR DCT GFK/N0499F340 DCT HML/N0496F330 DCT YRL DCT 56N090W/N0483F350 61N080W 65N070W/M084F350 DCT DARUB DCT 68N050W 68N040W 67N030W/M084F370 65N020W DCT ATSIX/N0477F370 DCT AKIVO DCT NAVSO DCT AKOMU DCT VAMEB DCT NUGRA |
| Aircraft | B77W/H-SDE1E2E3FGHIJ2J3J4J5M1RWXY/LB1D1 |
Departure
| Time | 2026-04-24 19:28 |
|---|---|
| Airport | Los Angeles International Airport (KLAX) |
Arrival
| Time | N/A |
|---|---|
| Airport | London Heathrow Airport (EGLL) |
| Time | Latitude | Longitude | Altitude | Speed | Heading |
|---|---|---|---|---|---|
| 2026-04-24 19:00 | 33.94089 | -118.40939 | 130 ft | 0 kts | 264° |
| 2026-04-24 19:16 | 33.94089 | -118.40936 | 130 ft | 1 kts | 264° |
| 2026-04-24 19:16 | 33.94091 | -118.40915 | 125 ft | 2 kts | 264° |
| 2026-04-24 19:17 | 33.94093 | -118.40891 | 125 ft | 2 kts | 264° |
| 2026-04-24 19:17 | 33.94095 | -118.40871 | 125 ft | 1 kts | 264° |
| 2026-04-24 19:17 | 33.94098 | -118.40851 | 125 ft | 2 kts | 233° |
| 2026-04-24 19:17 | 33.94111 | -118.40839 | 125 ft | 2 kts | 187° |
| 2026-04-24 19:18 | 33.94131 | -118.40839 | 125 ft | 2 kts | 174° |
| 2026-04-24 19:18 | 33.94144 | -118.40841 | 126 ft | 1 kts | 173° |
| 2026-04-24 19:18 | 33.94148 | -118.40841 | 126 ft | 0 kts | 173° |
| 2026-04-24 19:21 | 33.94108 | -118.40835 | 125 ft | 11 kts | 172° |
| 2026-04-24 19:21 | 33.94029 | -118.40823 | 128 ft | 14 kts | 174° |
| 2026-04-24 19:21 | 33.93934 | -118.40811 | 127 ft | 14 kts | 167° |
| 2026-04-24 19:22 | 33.93881 | -118.40770 | 128 ft | 14 kts | 141° |
| 2026-04-24 19:22 | 33.93814 | -118.40651 | 126 ft | 14 kts | 91° |
| 2026-04-24 19:22 | 33.93823 | -118.40538 | 126 ft | 14 kts | 84° |
| 2026-04-24 19:22 | 33.93833 | -118.40430 | 129 ft | 14 kts | 83° |
| 2026-04-24 19:23 | 33.93846 | -118.40317 | 130 ft | 14 kts | 83° |
| 2026-04-24 19:23 | 33.93857 | -118.40203 | 130 ft | 14 kts | 85° |
| 2026-04-24 19:23 | 33.93867 | -118.40089 | 126 ft | 14 kts | 81° |
| 2026-04-24 19:23 | 33.93883 | -118.39953 | 126 ft | 20 kts | 82° |
| 2026-04-24 19:24 | 33.93903 | -118.39785 | 127 ft | 20 kts | 83° |
| 2026-04-24 19:24 | 33.93922 | -118.39614 | 130 ft | 20 kts | 85° |
| 2026-04-24 19:24 | 33.93936 | -118.39445 | 127 ft | 20 kts | 83° |
| 2026-04-24 19:24 | 33.93954 | -118.39277 | 127 ft | 20 kts | 86° |
| 2026-04-24 19:25 | 33.93968 | -118.39108 | 126 ft | 20 kts | 81° |
| 2026-04-24 19:25 | 33.93987 | -118.38940 | 128 ft | 20 kts | 83° |
| 2026-04-24 19:25 | 33.94004 | -118.38774 | 129 ft | 20 kts | 83° |
| 2026-04-24 19:25 | 33.94021 | -118.38606 | 129 ft | 20 kts | 83° |
| 2026-04-24 19:26 | 33.94036 | -118.38437 | 127 ft | 20 kts | 83° |
| 2026-04-24 19:26 | 33.94055 | -118.38269 | 126 ft | 20 kts | 83° |
| 2026-04-24 19:26 | 33.94072 | -118.38102 | 129 ft | 17 kts | 82° |
| 2026-04-24 19:26 | 33.94038 | -118.38006 | 126 ft | 14 kts | 158° |
| 2026-04-24 19:27 | 33.93985 | -118.38043 | 126 ft | 9 kts | 256° |
| 2026-04-24 19:27 | 33.93979 | -118.38080 | 129 ft | 0 kts | 263° |
| 2026-04-24 19:27 | 33.93971 | -118.38161 | 130 ft | 36 kts | 263° |
| 2026-04-24 19:27 | 33.93875 | -118.39092 | 130 ft | 130 kts | 263° |
| 2026-04-24 19:28 | 33.93736 | -118.40428 | 128 ft | 188 kts | 263° |
| 2026-04-24 19:28 | 33.93630 | -118.41548 | 250 ft | 204 kts | 264° |
| 2026-04-24 19:28 | 33.93526 | -118.42662 | 675 ft | 200 kts | 258° |
| 2026-04-24 19:28 | 33.93245 | -118.45371 | 1926 ft | 197 kts | 258° |
| 2026-04-24 19:29 | 33.91838 | -118.48267 | 2404 ft | 215 kts | 226° |
| 2026-04-24 19:29 | 33.90815 | -118.49707 | 2526 ft | 237 kts | 227° |
| 2026-04-24 19:29 | 33.89694 | -118.51225 | 2909 ft | 248 kts | 227° |
| 2026-04-24 19:30 | 33.88544 | -118.52793 | 3552 ft | 250 kts | 229° |
| 2026-04-24 19:30 | 33.87405 | -118.54385 | 4262 ft | 251 kts | 229° |
| 2026-04-24 19:30 | 33.86044 | -118.55737 | 4675 ft | 261 kts | 202° |
| 2026-04-24 19:30 | 33.84240 | -118.56032 | 5204 ft | 269 kts | 171° |
| 2026-04-24 19:31 | 33.82417 | -118.55496 | 5784 ft | 274 kts | 169° |
| 2026-04-24 19:31 | 33.80538 | -118.54984 | 6333 ft | 281 kts | 171° |
| 2026-04-24 19:31 | 33.78616 | -118.54466 | 6971 ft | 283 kts | 169° |
| 2026-04-24 19:31 | 33.76701 | -118.53954 | 7709 ft | 281 kts | 171° |
| 2026-04-24 19:32 | 33.74791 | -118.53450 | 8319 ft | 285 kts | 170° |
| 2026-04-24 19:32 | 33.72836 | -118.52929 | 8886 ft | 288 kts | 169° |
| 2026-04-24 19:32 | 33.70894 | -118.52325 | 9548 ft | 288 kts | 159° |
| 2026-04-24 19:32 | 33.69264 | -118.50875 | 9982 ft | 301 kts | 127° |
| 2026-04-24 19:33 | 33.68361 | -118.48586 | 10375 ft | 311 kts | 109° |
| 2026-04-24 19:33 | 33.67731 | -118.46007 | 10510 ft | 331 kts | 108° |
| 2026-04-24 19:33 | 33.67054 | -118.43279 | 10671 ft | 352 kts | 109° |
| 2026-04-24 19:33 | 33.66263 | -118.40408 | 10839 ft | 373 kts | 111° |
| 2026-04-24 19:34 | 33.65688 | -118.38435 | 10996 ft | 384 kts | 111° |
| 2026-04-24 19:34 | 33.65090 | -118.36416 | 11271 ft | 392 kts | 111° |
| 2026-04-24 19:34 | 33.64258 | -118.32117 | 11778 ft | 403 kts | 92° |
| 2026-04-24 19:34 | 33.64285 | -118.28724 | 12301 ft | 411 kts | 90° |
| 2026-04-24 19:35 | 33.64355 | -118.25281 | 13021 ft | 415 kts | 90° |
| 2026-04-24 19:35 | 33.64394 | -118.22977 | 13515 ft | 418 kts | 90° |